KPAM/PAM METAR and TAF weather

Enter ICAO airport designator
Station Type Date Time Source
KPAM METAR 2019/08/25 02:56 UTC NOAA

KPAM 250256Z AUTO 30003KT 10SM CLR 27/25 A2997 RMK AO2 SLP152 T02740246 52017 $


Station Type Date Time Source
KPAM Decoded METAR 2019/08/25 02:56 UTC NOAA

Station name not available
Aug 24, 2019 - 10:56 PM EDT / 2019.08.25 0256 UTC
Wind: from the WNW (300 degrees) at 3 MPH (3 KT):0
Visibility: 10 mile(s):0
Sky conditions: clear
Temperature: 81.3 F (27.4 C)
Dew Point: 76.3 F (24.6 C)
Relative Humidity: 84%
Pressure (altimeter): 29.97 in. Hg (1014 hPa)
Pressure tendency: 0.05 inches (1.7 hPa) higher than three hours ago
ob: KPAM 250256Z AUTO 30003KT 10SM CLR 27/25 A2997 RMK AO2 SLP152 T02740246 52017
cycle: 3

Station Type Date Time Source
KPAM TAF 2019/08/23 18:06 UTC NOAA

TAF KPAM 231800Z 2318/2424 21006KT 9999 SCT030 QNH2998INS
BECMG 2403/2404 35003KT 9999 FEW025 QNH2990INS TX32/2319Z TN25/2411Z LAST NO
AMDS AFT 2322 NEXT 2610

Example: see airport list